Taylorville, Pennsylvania
Current Conditions -  °F | °C
As of 1:15 PM on Friday 28 Nov 2014 (Local Time) from KHZL Reporting Station
Overcast Overcast  
Wind Chill: 21°   Ceiling: 4000
Heat Index: 28°   Visibility: 10mi
Dew Point: 16°   Wind: 7mph
Humidity: 59%   Direction: 280°W
Pressure: 30.16"   Gusts: 17mph
Location:  40.7564°N, 76.3531°W
Report Text: KHZL 281815Z AUTO 28006G15KT 10SM OVC040 M02/M09 A3016 RMK AO2
Loading
Personal Weather Stations






























Interactive Weather Map New forecast layout! Learn more

10-Day Weather Forecast

Advertisements
Track Severe Weather on mobile